createdAt,value
2023-01-31T00:02:28.358Z,101295.31
2023-01-31T00:05:30.430Z,101290.13
2023-01-31T00:08:32.053Z,101288.91
2023-01-31T00:11:34.905Z,101283.69
2023-01-31T00:14:37.308Z,101286.91
2023-01-31T00:17:40.492Z,101288.28
2023-01-31T00:20:42.101Z,101282.84
2023-01-31T00:23:44.828Z,101285.03
2023-01-31T00:26:48.550Z,101272.03
2023-01-31T00:29:50.339Z,101282.22
2023-01-31T00:32:53.315Z,101290.75
2023-01-31T00:35:54.988Z,101287.31
2023-01-31T00:38:59.398Z,101295.00
2023-01-31T00:42:01.106Z,101292.63
2023-01-31T00:45:03.392Z,101290.22
2023-01-31T00:48:06.448Z,101280.03
2023-01-31T00:51:08.972Z,101290.03
2023-01-31T00:54:11.045Z,101281.22
2023-01-31T00:57:12.669Z,101283.16
2023-01-31T01:00:15.807Z,101280.50
2023-01-31T01:03:18.967Z,101278.81
2023-01-31T01:06:21.054Z,101274.53
2023-01-31T01:09:22.873Z,101283.25
2023-01-31T01:12:24.639Z,101284.63
2023-01-31T01:15:26.275Z,101292.63
2023-01-31T01:18:29.687Z,101286.50
2023-01-31T01:21:39.175Z,101293.53
2023-01-31T01:24:42.752Z,101308.00
2023-01-31T01:27:44.547Z,101299.59
2023-01-31T01:30:46.383Z,101305.66
2023-01-31T01:33:49.652Z,101303.38
2023-01-31T01:36:51.332Z,101296.94
2023-01-31T01:39:53.333Z,101299.16
2023-01-31T01:42:55.037Z,101295.94
2023-01-31T01:45:57.519Z,101311.31
2023-01-31T01:49:05.867Z,101305.16
2023-01-31T01:52:12.464Z,101310.94
2023-01-31T01:55:22.611Z,101314.84
2023-01-31T01:58:29.491Z,101317.22
2023-01-31T02:01:35.149Z,101321.91
2023-01-31T02:04:46.452Z,101321.53
2023-01-31T02:07:48.139Z,101319.41
2023-01-31T02:10:55.542Z,101318.81
2023-01-31T02:14:01.783Z,101321.44
2023-01-31T02:17:03.749Z,101317.00
2023-01-31T02:20:29.047Z,101325.63
2023-01-31T02:24:06.053Z,101316.91
2023-01-31T02:27:29.014Z,101323.53
2023-01-31T02:30:50.149Z,101326.72
2023-01-31T02:34:02.346Z,101333.88
2023-01-31T02:37:16.860Z,101329.31
2023-01-31T02:40:26.457Z,101323.22
2023-01-31T02:43:56.873Z,101314.63
2023-01-31T02:47:02.025Z,101323.66
2023-01-31T02:50:12.918Z,101316.97
2023-01-31T02:53:22.567Z,101312.06
2023-01-31T02:56:30.288Z,101317.16
2023-01-31T02:59:32.964Z,101310.22
2023-01-31T03:02:34.891Z,101312.97
2023-01-31T03:05:38.785Z,101312.72
2023-01-31T03:08:44.295Z,101319.94
2023-01-31T03:11:53.349Z,101310.28
2023-01-31T03:15:05.910Z,101323.22
2023-01-31T03:18:13.690Z,101326.88
2023-01-31T03:21:21.495Z,101331.72
2023-01-31T03:24:26.211Z,101336.97
2023-01-31T03:27:28.834Z,101338.91
2023-01-31T03:30:37.380Z,101342.50
2023-01-31T03:33:42.195Z,101345.31
2023-01-31T03:36:54.033Z,101349.69
2023-01-31T03:40:24.141Z,101336.84
2023-01-31T03:43:31.882Z,101350.38
2023-01-31T03:46:40.029Z,101360.03
2023-01-31T03:49:44.880Z,101361.88
2023-01-31T03:52:54.923Z,101368.31
2023-01-31T03:56:01.800Z,101358.47
2023-01-31T03:59:10.126Z,101364.03
2023-01-31T04:02:16.923Z,101362.88
2023-01-31T04:05:22.950Z,101353.31
2023-01-31T04:08:31.264Z,101359.53
2023-01-31T04:11:39.765Z,101358.75
2023-01-31T04:14:41.879Z,101356.66
2023-01-31T04:17:43.883Z,101352.19
2023-01-31T04:20:45.648Z,101365.13
2023-01-31T04:23:48.754Z,101366.66
2023-01-31T04:26:50.746Z,101367.53
2023-01-31T04:29:52.462Z,101359.56
2023-01-31T04:32:54.256Z,101359.97
2023-01-31T04:35:56.008Z,101353.34
2023-01-31T04:39:00.826Z,101356.00
2023-01-31T04:42:02.556Z,101343.34
2023-01-31T04:45:05.211Z,101337.41
2023-01-31T04:48:07.754Z,101346.81
2023-01-31T04:51:09.776Z,101352.78
2023-01-31T04:54:12.928Z,101353.22
2023-01-31T04:57:14.696Z,101352.59
2023-01-31T05:00:17.430Z,101333.03
2023-01-31T05:03:19.070Z,101333.47
2023-01-31T05:06:20.743Z,101327.66
2023-01-31T05:09:24.900Z,101338.75
2023-01-31T05:12:28.411Z,101334.59
2023-01-31T05:15:30.282Z,101335.28
2023-01-31T05:18:32.701Z,101341.59
2023-01-31T05:21:54.402Z,101342.78
2023-01-31T05:24:58.556Z,101335.25
2023-01-31T05:28:00.347Z,101323.53
2023-01-31T05:31:05.306Z,101333.19
2023-01-31T05:34:07.318Z,101331.53
2023-01-31T05:37:09.512Z,101337.31
2023-01-31T05:40:14.841Z,101338.69
2023-01-31T05:43:16.531Z,101327.59
2023-01-31T05:46:18.267Z,101330.72
2023-01-31T05:49:20.317Z,101325.06
2023-01-31T05:52:22.095Z,101328.53
2023-01-31T05:55:25.827Z,101327.09
2023-01-31T05:58:27.624Z,101329.34
2023-01-31T06:01:30.010Z,101334.25
2023-01-31T06:04:32.153Z,101321.25
2023-01-31T06:07:34.230Z,101326.69
2023-01-31T06:10:37.261Z,101338.84
2023-01-31T06:13:39.926Z,101346.50
2023-01-31T06:16:41.769Z,101343.84
2023-01-31T06:19:43.701Z,101342.88
2023-01-31T06:22:45.601Z,101350.09
2023-01-31T06:25:50.524Z,101343.25
2023-01-31T06:28:52.303Z,101336.19
2023-01-31T06:31:53.993Z,101336.81
2023-01-31T06:34:56.187Z,101331.84
2023-01-31T06:37:58.215Z,101338.91
2023-01-31T06:41:01.262Z,101340.53
2023-01-31T06:44:03.100Z,101327.56
2023-01-31T06:47:05.034Z,101342.63
2023-01-31T06:50:07.299Z,101342.41
2023-01-31T06:53:08.991Z,101340.47
2023-01-31T06:56:12.424Z,101339.53
2023-01-31T06:59:14.341Z,101333.63
2023-01-31T07:02:16.699Z,101340.25
2023-01-31T07:05:18.720Z,101345.88
2023-01-31T07:08:20.539Z,101344.72
2023-01-31T07:11:23.658Z,101353.69
2023-01-31T07:14:25.332Z,101363.78
2023-01-31T07:17:27.158Z,101354.81
2023-01-31T07:20:28.926Z,101368.97
2023-01-31T07:23:31.130Z,101378.63
2023-01-31T07:26:34.997Z,101384.03
2023-01-31T07:29:38.347Z,101393.19
2023-01-31T07:32:40.256Z,101396.97
2023-01-31T07:35:42.173Z,101390.59
2023-01-31T07:38:44.013Z,101391.31
2023-01-31T07:41:47.094Z,101388.00
2023-01-31T07:44:48.895Z,101391.53
2023-01-31T07:47:50.561Z,101391.53
2023-01-31T07:50:53.706Z,101392.72
2023-01-31T07:53:56.609Z,101396.72
2023-01-31T07:56:59.816Z,101399.94
2023-01-31T08:00:01.771Z,101410.31
2023-01-31T08:03:33.928Z,101415.72
2023-01-31T08:06:36.523Z,101420.91
2023-01-31T08:09:39.103Z,101402.97
2023-01-31T08:12:42.405Z,101414.94
2023-01-31T08:15:44.173Z,101413.50
2023-01-31T08:18:46.405Z,101410.47
2023-01-31T08:21:48.300Z,101409.44
2023-01-31T08:24:49.985Z,101405.25
2023-01-31T08:27:53.048Z,101391.72
2023-01-31T08:31:07.785Z,101393.06
2023-01-31T08:37:32.741Z,101384.53
2023-01-31T08:40:34.476Z,101389.22
2023-01-31T08:43:53.760Z,101394.84
2023-01-31T08:47:00.741Z,101399.25
2023-01-31T08:50:02.733Z,101387.06
2023-01-31T08:53:04.835Z,101393.38
2023-01-31T08:56:08.733Z,101388.66
2023-01-31T08:59:12.259Z,101382.38
2023-01-31T09:02:14.145Z,101375.50
2023-01-31T09:05:16.464Z,101379.34
2023-01-31T09:08:18.223Z,101400.88
2023-01-31T09:11:20.637Z,101398.53
2023-01-31T09:14:23.712Z,101404.66
2023-01-31T09:22:36.390Z,101393.38
2023-01-31T09:25:47.132Z,101384.47
2023-01-31T09:28:50.953Z,101381.88
2023-01-31T09:31:53.232Z,101373.69
2023-01-31T09:34:55.254Z,101369.97
2023-01-31T09:37:58.503Z,101367.75
2023-01-31T09:41:03.901Z,101367.56
2023-01-31T09:44:06.893Z,101367.56
2023-01-31T09:47:14.088Z,101372.25
2023-01-31T09:50:20.875Z,101373.94
2023-01-31T09:53:29.243Z,101384.19
2023-01-31T09:56:39.488Z,101383.75
2023-01-31T09:59:48.983Z,101394.28
2023-01-31T10:03:13.217Z,101392.56
2023-01-31T10:06:21.043Z,101393.59
2023-01-31T10:09:29.458Z,101389.03
2023-01-31T10:12:39.517Z,101389.63
2023-01-31T10:15:45.095Z,101378.22
2023-01-31T10:18:51.569Z,101363.88
2023-01-31T10:21:57.290Z,101357.88
2023-01-31T10:25:08.475Z,101337.81
2023-01-31T10:28:14.059Z,101342.22
2023-01-31T10:31:28.118Z,101352.31
2023-01-31T10:34:34.738Z,101359.16
2023-01-31T10:37:42.700Z,101352.78
2023-01-31T10:40:52.479Z,101341.50
2023-01-31T10:44:00.437Z,101331.03
2023-01-31T10:47:02.691Z,101333.00
2023-01-31T10:50:14.788Z,101344.84
2023-01-31T10:53:41.450Z,101349.34
2023-01-31T10:56:47.211Z,101349.84
2023-01-31T10:59:50.199Z,101348.91
2023-01-31T11:02:52.186Z,101352.25
2023-01-31T11:05:56.679Z,101357.84
2023-01-31T11:09:01.127Z,101338.00
2023-01-31T11:12:06.847Z,101306.72
2023-01-31T11:15:16.798Z,101290.69
2023-01-31T11:18:29.059Z,101287.56
2023-01-31T11:21:33.463Z,101284.78
2023-01-31T11:24:38.675Z,101256.25
2023-01-31T11:27:42.676Z,101255.53
2023-01-31T11:30:48.931Z,101283.19
2023-01-31T11:33:57.409Z,101274.88
2023-01-31T11:37:12.862Z,101277.25
2023-01-31T11:40:22.489Z,101248.75
2023-01-31T11:43:30.063Z,101241.06
2023-01-31T11:46:44.378Z,101223.69
2023-01-31T11:49:50.533Z,101222.97
2023-01-31T11:52:57.940Z,101217.22
2023-01-31T11:56:12.871Z,101212.66
2023-01-31T11:59:21.231Z,101218.25
2023-01-31T12:02:36.822Z,101212.00
2023-01-31T12:05:42.304Z,101200.44
2023-01-31T12:08:44.126Z,101201.41
2023-01-31T12:11:51.140Z,101217.19
2023-01-31T12:14:59.213Z,101206.06
2023-01-31T12:18:01.789Z,101193.78
2023-01-31T12:21:10.883Z,101184.84
2023-01-31T12:24:24.987Z,101182.66
2023-01-31T12:27:40.547Z,101177.03
2023-01-31T12:31:10.641Z,101187.03
2023-01-31T12:34:30.228Z,101186.84
2023-01-31T12:37:42.392Z,101186.31
2023-01-31T12:40:49.891Z,101191.84
2023-01-31T12:44:05.420Z,101176.75
2023-01-31T12:47:37.849Z,101153.03
2023-01-31T12:50:48.684Z,101139.16
2023-01-31T12:53:59.872Z,101147.81
2023-01-31T12:57:10.102Z,101152.44
2023-01-31T13:00:28.051Z,101139.19
2023-01-31T13:03:44.286Z,101133.38
2023-01-31T13:06:51.210Z,101114.34
2023-01-31T13:09:54.619Z,101102.13
2023-01-31T13:12:58.450Z,101113.63
2023-01-31T13:16:05.634Z,101124.75
2023-01-31T13:19:15.641Z,101115.63
2023-01-31T13:22:21.179Z,101092.75
2023-01-31T13:25:29.500Z,101106.69
2023-01-31T13:28:36.684Z,101089.44
2023-01-31T13:31:44.914Z,101093.69
2023-01-31T13:34:52.647Z,101098.50
2023-01-31T13:38:00.750Z,101097.44
2023-01-31T13:41:04.715Z,101096.47
2023-01-31T13:44:12.249Z,101093.28
2023-01-31T13:47:18.441Z,101074.88
2023-01-31T13:50:33.156Z,101075.41
2023-01-31T13:53:42.347Z,101075.41
2023-01-31T13:56:50.195Z,101080.41
2023-01-31T13:59:55.171Z,101083.22
2023-01-31T14:03:01.324Z,101082.28
2023-01-31T14:06:04.697Z,101076.91
2023-01-31T14:09:23.212Z,101091.13
2023-01-31T14:12:36.294Z,101088.88
2023-01-31T14:15:48.368Z,101081.78
2023-01-31T14:18:50.135Z,101072.88
2023-01-31T14:21:55.159Z,101079.50
2023-01-31T14:25:02.271Z,101087.31
2023-01-31T14:28:04.343Z,101088.34
2023-01-31T14:31:13.329Z,101089.09
2023-01-31T14:34:17.466Z,101091.59
2023-01-31T14:37:34.989Z,101100.56
2023-01-31T14:40:46.420Z,101097.94
2023-01-31T14:44:01.593Z,101090.47
2023-01-31T14:48:01.421Z,101105.44
2023-01-31T14:51:14.490Z,101103.28
2023-01-31T14:54:33.529Z,101108.47
2023-01-31T14:57:41.317Z,101115.22
2023-01-31T15:00:49.993Z,101104.34
2023-01-31T15:03:58.856Z,101102.16
2023-01-31T15:07:00.763Z,101102.47
2023-01-31T15:10:04.839Z,101097.16
2023-01-31T15:13:37.634Z,101103.81
2023-01-31T15:16:39.327Z,101105.25
2023-01-31T15:19:46.832Z,101097.78
2023-01-31T15:22:50.200Z,101097.97
2023-01-31T15:25:54.355Z,101108.88
2023-01-31T15:28:58.063Z,101109.31
2023-01-31T15:33:22.202Z,101102.97
2023-01-31T15:36:30.532Z,101097.78
2023-01-31T15:39:40.017Z,101109.31
2023-01-31T15:42:42.128Z,101098.94
2023-01-31T15:45:44.815Z,101109.31
2023-01-31T15:48:48.304Z,101109.50
2023-01-31T15:52:10.170Z,101115.63
2023-01-31T15:55:14.303Z,101117.50
2023-01-31T15:58:18.885Z,101110.13
2023-01-31T16:01:20.748Z,101110.66
2023-01-31T16:04:23.974Z,101115.31
2023-01-31T16:07:31.650Z,101127.91
2023-01-31T16:10:33.977Z,101123.56
2023-01-31T16:13:38.132Z,101123.56
2023-01-31T16:16:40.202Z,101129.16
2023-01-31T16:19:48.739Z,101119.69
2023-01-31T16:22:56.381Z,101114.91
2023-01-31T16:26:03.883Z,101105.88
2023-01-31T16:29:10.767Z,101100.16
2023-01-31T16:32:19.684Z,101100.56
2023-01-31T16:35:26.003Z,101106.72
2023-01-31T16:38:27.779Z,101095.81
2023-01-31T16:41:42.023Z,101107.75
2023-01-31T16:44:46.213Z,101106.19
2023-01-31T16:47:52.486Z,101101.91
2023-01-31T16:50:57.012Z,101105.88
2023-01-31T16:54:21.231Z,101098.69
2023-01-31T16:57:41.603Z,101094.13
2023-01-31T17:01:11.857Z,101094.91
2023-01-31T17:04:32.499Z,101099.59
2023-01-31T17:07:54.239Z,101110.94
2023-01-31T17:11:34.116Z,101114.66
2023-01-31T17:15:01.608Z,101116.53
2023-01-31T17:18:23.581Z,101112.19
2023-01-31T17:21:44.293Z,101109.97
2023-01-31T17:25:14.789Z,101112.25
2023-01-31T17:28:35.078Z,101107.97
2023-01-31T17:31:55.525Z,101106.53
2023-01-31T17:35:19.422Z,101101.53
2023-01-31T17:38:41.384Z,101097.69
2023-01-31T17:42:03.930Z,101090.50
2023-01-31T17:45:25.401Z,101087.88
2023-01-31T17:48:46.039Z,101089.91
2023-01-31T17:52:06.238Z,101095.38
2023-01-31T17:55:26.721Z,101103.19
2023-01-31T17:58:49.534Z,101114.13
2023-01-31T18:02:10.383Z,101110.38
2023-01-31T18:05:39.137Z,101110.59
2023-01-31T18:09:04.604Z,101113.38
2023-01-31T18:12:25.158Z,101115.78
2023-01-31T18:15:47.421Z,101124.41
2023-01-31T18:19:08.025Z,101118.78
2023-01-31T18:22:28.234Z,101116.75
2023-01-31T18:25:48.569Z,101106.00
2023-01-31T18:29:08.811Z,101097.25
2023-01-31T18:32:30.509Z,101095.81
2023-01-31T18:35:56.004Z,101086.34
2023-01-31T18:39:16.491Z,101088.34
2023-01-31T18:42:33.324Z,101093.94
2023-01-31T18:45:37.217Z,101101.94
2023-01-31T18:48:41.865Z,101094.34
2023-01-31T18:51:43.658Z,101091.94
2023-01-31T18:54:48.918Z,101093.41
2023-01-31T18:57:50.426Z,101088.94
2023-01-31T19:00:52.046Z,101082.63
2023-01-31T19:03:58.240Z,101083.75
2023-01-31T19:07:00.040Z,101087.50
2023-01-31T19:40:08.728Z,101092.88
2023-01-31T19:43:10.510Z,101070.53
2023-01-31T19:46:12.709Z,101083.25
2023-01-31T19:49:14.518Z,101079.84
2023-01-31T19:52:16.179Z,101080.97
2023-01-31T19:55:19.580Z,101072.63
2023-01-31T19:58:21.862Z,101070.31
2023-01-31T20:01:23.920Z,101060.41
2023-01-31T20:04:25.697Z,101054.72
2023-01-31T20:07:27.362Z,101056.63
2023-01-31T20:10:31.246Z,101051.34
2023-01-31T20:13:33.309Z,101053.06
2023-01-31T20:16:35.389Z,101047.47
2023-01-31T20:19:37.175Z,101054.56
2023-01-31T20:22:39.085Z,101050.44
2023-01-31T20:25:42.138Z,101047.06
2023-01-31T20:28:44.499Z,101038.84
2023-01-31T20:31:46.462Z,101040.16
2023-01-31T20:34:48.295Z,101041.09
2023-01-31T20:37:49.994Z,101053.38
2023-01-31T20:40:54.951Z,101045.25
2023-01-31T20:43:57.821Z,101046.41
2023-01-31T20:46:59.510Z,101040.03
2023-01-31T20:50:01.490Z,101036.31
2023-01-31T20:53:03.411Z,101040.13
2023-01-31T20:56:09.489Z,101041.63
2023-01-31T20:59:11.290Z,101035.53
2023-01-31T21:02:13.518Z,101041.72
2023-01-31T21:05:15.943Z,101048.31
2023-01-31T21:08:18.429Z,101047.88
2023-01-31T21:11:21.469Z,101060.53
2023-01-31T21:14:23.427Z,101065.75
2023-01-31T21:17:39.283Z,101070.41
2023-01-31T21:20:41.815Z,101068.97
2023-01-31T21:23:43.513Z,101075.63
2023-01-31T21:26:46.656Z,101080.84
2023-01-31T21:29:48.317Z,101082.13
2023-01-31T21:32:50.046Z,101063.50
2023-01-31T21:35:51.783Z,101070.53
2023-01-31T21:42:36.106Z,101061.03
2023-01-31T21:45:41.007Z,101071.22
2023-01-31T21:48:44.704Z,101085.69
2023-01-31T21:51:46.742Z,101071.72
2023-01-31T21:54:48.416Z,101063.28
2023-01-31T21:57:51.406Z,101053.22
2023-01-31T22:00:53.115Z,101050.09
2023-01-31T22:03:55.733Z,101036.06
2023-01-31T22:06:57.626Z,101040.16
2023-01-31T22:09:59.757Z,101034.75
2023-01-31T22:13:02.845Z,101032.16
2023-01-31T22:16:07.310Z,101030.84
2023-01-31T22:19:10.357Z,101021.78
2023-01-31T22:22:12.192Z,101027.19
2023-01-31T22:25:13.950Z,101025.94
2023-01-31T22:28:17.181Z,101024.06
2023-01-31T22:31:19.430Z,101015.13
2023-01-31T22:34:21.170Z,101008.97
2023-01-31T22:37:22.861Z,101003.75
2023-01-31T22:40:24.693Z,100994.84
2023-01-31T22:43:28.799Z,100995.91
2023-01-31T22:46:30.701Z,101001.13
2023-01-31T22:49:32.599Z,100983.63
2023-01-31T22:52:34.441Z,100984.97
2023-01-31T22:55:39.457Z,100982.38
2023-01-31T22:58:42.672Z,100983.09
2023-01-31T23:01:44.355Z,100979.56
2023-01-31T23:04:46.020Z,100980.31
2023-01-31T23:07:47.682Z,100980.31
2023-01-31T23:10:49.471Z,100974.56
2023-01-31T23:13:52.770Z,100979.03
2023-01-31T23:17:13.040Z,100977.16
2023-01-31T23:20:16.936Z,100982.75
2023-01-31T23:23:18.695Z,100980.16
2023-01-31T23:26:20.459Z,100986.28
2023-01-31T23:29:23.534Z,100987.75
2023-01-31T23:32:25.709Z,100990.19
2023-01-31T23:35:27.517Z,100994.22
2023-01-31T23:38:29.302Z,100990.72
2023-01-31T23:41:31.097Z,100987.16
2023-01-31T23:44:34.167Z,100988.84
2023-01-31T23:47:35.924Z,100984.56
2023-01-31T23:50:37.779Z,100975.25
2023-01-31T23:53:39.469Z,100970.44
2023-01-31T23:56:41.183Z,100970.78
2023-01-31T23:59:45.402Z,100972.84
